sensor_id;sensor_type;location;lat;lon;timestamp;temperature;humidity
7934;DHT22;4012;48.896;9.192;2023-02-19T00:00:17;9.30;99.90
7934;DHT22;4012;48.896;9.192;2023-02-19T00:02:42;9.30;99.90
7934;DHT22;4012;48.896;9.192;2023-02-19T00:05:09;9.40;99.90
7934;DHT22;4012;48.896;9.192;2023-02-19T00:07:35;9.40;99.90
7934;DHT22;4012;48.896;9.192;2023-02-19T00:10:00;9.40;99.90
7934;DHT22;4012;48.896;9.192;2023-02-19T00:12:26;9.40;99.90
7934;DHT22;4012;48.896;9.192;2023-02-19T00:14:52;9.40;99.90
7934;DHT22;4012;48.896;9.192;2023-02-19T00:17:19;9.40;99.90
7934;DHT22;4012;48.896;9.192;2023-02-19T00:19:44;9.50;99.90
7934;DHT22;4012;48.896;9.192;2023-02-19T00:22:10;9.40;99.90
7934;DHT22;4012;48.896;9.192;2023-02-19T00:24:36;9.50;99.90
7934;DHT22;4012;48.896;9.192;2023-02-19T00:27:01;9.40;99.90
7934;DHT22;4012;48.896;9.192;2023-02-19T00:29:27;9.40;99.90
7934;DHT22;4012;48.896;9.192;2023-02-19T00:31:52;9.40;99.90
7934;DHT22;4012;48.896;9.192;2023-02-19T00:34:18;9.50;99.90
7934;DHT22;4012;48.896;9.192;2023-02-19T00:36:43;9.50;99.90
7934;DHT22;4012;48.896;9.192;2023-02-19T00:39:12;9.50;99.90
7934;DHT22;4012;48.896;9.192;2023-02-19T00:41:39;9.40;99.90
7934;DHT22;4012;48.896;9.192;2023-02-19T00:44:07;9.50;99.90
7934;DHT22;4012;48.896;9.192;2023-02-19T00:48:58;9.50;99.90
7934;DHT22;4012;48.896;9.192;2023-02-19T00:51:26;9.50;99.90
7934;DHT22;4012;48.896;9.192;2023-02-19T00:53:52;9.50;99.90
7934;DHT22;4012;48.896;9.192;2023-02-19T00:56:18;9.50;99.90
7934;DHT22;4012;48.896;9.192;2023-02-19T00:58:44;9.60;99.90
7934;DHT22;4012;48.896;9.192;2023-02-19T01:01:10;9.50;99.90
7934;DHT22;4012;48.896;9.192;2023-02-19T01:03:37;9.50;99.90
7934;DHT22;4012;48.896;9.192;2023-02-19T01:06:04;9.50;99.90
7934;DHT22;4012;48.896;9.192;2023-02-19T01:08:29;9.50;99.90
7934;DHT22;4012;48.896;9.192;2023-02-19T01:10:56;9.50;99.90
7934;DHT22;4012;48.896;9.192;2023-02-19T01:13:21;9.50;99.90
7934;DHT22;4012;48.896;9.192;2023-02-19T01:15:47;9.50;99.90
7934;DHT22;4012;48.896;9.192;2023-02-19T01:20:40;9.50;99.90
7934;DHT22;4012;48.896;9.192;2023-02-19T01:23:07;9.50;99.90
7934;DHT22;4012;48.896;9.192;2023-02-19T01:25:33;9.50;99.90
7934;DHT22;4012;48.896;9.192;2023-02-19T01:27:59;9.50;99.90
7934;DHT22;4012;48.896;9.192;2023-02-19T01:30:25;9.40;99.90
7934;DHT22;4012;48.896;9.192;2023-02-19T01:32:50;9.50;99.90
7934;DHT22;4012;48.896;9.192;2023-02-19T01:35:16;9.50;99.90
7934;DHT22;4012;48.896;9.192;2023-02-19T01:37:41;9.50;99.90
7934;DHT22;4012;48.896;9.192;2023-02-19T01:40:07;9.40;99.90
7934;DHT22;4012;48.896;9.192;2023-02-19T01:42:33;9.40;99.90
7934;DHT22;4012;48.896;9.192;2023-02-19T01:47:46;9.40;99.90
7934;DHT22;4012;48.896;9.192;2023-02-19T01:50:14;9.40;99.90
7934;DHT22;4012;48.896;9.192;2023-02-19T01:52:40;9.50;99.90
7934;DHT22;4012;48.896;9.192;2023-02-19T01:55:10;9.50;99.90
7934;DHT22;4012;48.896;9.192;2023-02-19T01:57:41;9.50;99.90
7934;DHT22;4012;48.896;9.192;2023-02-19T02:00:15;9.40;99.90
7934;DHT22;4012;48.896;9.192;2023-02-19T02:02:44;9.40;99.90
7934;DHT22;4012;48.896;9.192;2023-02-19T02:07:58;9.40;99.90
7934;DHT22;4012;48.896;9.192;2023-02-19T02:10:43;9.50;99.90
7934;DHT22;4012;48.896;9.192;2023-02-19T02:13:09;9.40;99.90
7934;DHT22;4012;48.896;9.192;2023-02-19T02:15:43;9.50;99.90
7934;DHT22;4012;48.896;9.192;2023-02-19T02:18:17;9.50;99.90
7934;DHT22;4012;48.896;9.192;2023-02-19T02:21:26;9.50;99.90
7934;DHT22;4012;48.896;9.192;2023-02-19T02:31:38;9.40;99.90
7934;DHT22;4012;48.896;9.192;2023-02-19T02:34:15;9.40;99.90
7934;DHT22;4012;48.896;9.192;2023-02-19T02:36:44;9.30;99.90
7934;DHT22;4012;48.896;9.192;2023-02-19T02:39:14;9.30;99.90
7934;DHT22;4012;48.896;9.192;2023-02-19T02:41:43;9.30;99.90
7934;DHT22;4012;48.896;9.192;2023-02-19T02:44:09;9.40;99.90
7934;DHT22;4012;48.896;9.192;2023-02-19T02:46:39;9.40;99.90
7934;DHT22;4012;48.896;9.192;2023-02-19T02:49:10;9.40;99.90
7934;DHT22;4012;48.896;9.192;2023-02-19T02:51:44;9.40;99.90
7934;DHT22;4012;48.896;9.192;2023-02-19T02:54:19;9.30;99.90
7934;DHT22;4012;48.896;9.192;2023-02-19T02:57:05;9.40;99.90
7934;DHT22;4012;48.896;9.192;2023-02-19T02:59:36;9.40;99.90
7934;DHT22;4012;48.896;9.192;2023-02-19T03:02:27;9.30;99.90
7934;DHT22;4012;48.896;9.192;2023-02-19T03:05:03;9.30;99.90
7934;DHT22;4012;48.896;9.192;2023-02-19T03:08:14;9.30;99.90
7934;DHT22;4012;48.896;9.192;2023-02-19T03:13:27;9.40;99.90
7934;DHT22;4012;48.896;9.192;2023-02-19T03:16:25;9.40;99.90
7934;DHT22;4012;48.896;9.192;2023-02-19T03:19:15;9.30;99.90
7934;DHT22;4012;48.896;9.192;2023-02-19T03:24:21;9.30;99.90
7934;DHT22;4012;48.896;9.192;2023-02-19T03:27:07;9.30;99.90
7934;DHT22;4012;48.896;9.192;2023-02-19T03:29:36;9.30;99.90
7934;DHT22;4012;48.896;9.192;2023-02-19T03:32:25;9.20;99.90
7934;DHT22;4012;48.896;9.192;2023-02-19T03:35:05;9.20;99.90
7934;DHT22;4012;48.896;9.192;2023-02-19T03:37:36;9.30;99.90
7934;DHT22;4012;48.896;9.192;2023-02-19T03:40:03;9.30;99.90
7934;DHT22;4012;48.896;9.192;2023-02-19T03:42:42;9.30;99.90
7934;DHT22;4012;48.896;9.192;2023-02-19T03:47:51;9.30;99.90
7934;DHT22;4012;48.896;9.192;2023-02-19T03:50:29;9.30;99.90
7934;DHT22;4012;48.896;9.192;2023-02-19T03:58:49;9.30;99.90
7934;DHT22;4012;48.896;9.192;2023-02-19T04:06:55;9.20;99.90
7934;DHT22;4012;48.896;9.192;2023-02-19T04:09:24;9.30;99.90
7934;DHT22;4012;48.896;9.192;2023-02-19T04:11:51;9.20;99.90
7934;DHT22;4012;48.896;9.192;2023-02-19T04:14:35;9.20;99.90
7934;DHT22;4012;48.896;9.192;2023-02-19T04:17:14;9.30;99.90
7934;DHT22;4012;48.896;9.192;2023-02-19T04:19:41;9.30;99.90
7934;DHT22;4012;48.896;9.192;2023-02-19T04:22:07;9.30;99.90
7934;DHT22;4012;48.896;9.192;2023-02-19T04:24:38;9.30;99.90
7934;DHT22;4012;48.896;9.192;2023-02-19T04:27:05;9.30;99.90
7934;DHT22;4012;48.896;9.192;2023-02-19T04:29:31;9.30;99.90
7934;DHT22;4012;48.896;9.192;2023-02-19T04:31:56;9.20;99.90
7934;DHT22;4012;48.896;9.192;2023-02-19T04:34:22;9.20;99.90
7934;DHT22;4012;48.896;9.192;2023-02-19T04:36:48;9.20;99.90
7934;DHT22;4012;48.896;9.192;2023-02-19T04:39:13;9.20;99.90
7934;DHT22;4012;48.896;9.192;2023-02-19T04:41:39;9.10;99.90
7934;DHT22;4012;48.896;9.192;2023-02-19T04:44:04;9.10;99.90
7934;DHT22;4012;48.896;9.192;2023-02-19T04:46:30;9.10;99.90
7934;DHT22;4012;48.896;9.192;2023-02-19T04:48:56;9.10;99.90
7934;DHT22;4012;48.896;9.192;2023-02-19T04:51:22;9.00;99.90
7934;DHT22;4012;48.896;9.192;2023-02-19T04:53:47;9.10;99.90
7934;DHT22;4012;48.896;9.192;2023-02-19T04:56:15;8.90;99.90
7934;DHT22;4012;48.896;9.192;2023-02-19T04:58:41;8.90;99.90
7934;DHT22;4012;48.896;9.192;2023-02-19T05:01:08;8.90;99.90
7934;DHT22;4012;48.896;9.192;2023-02-19T05:03:33;8.90;99.90
7934;DHT22;4012;48.896;9.192;2023-02-19T05:06:08;8.80;99.90
7934;DHT22;4012;48.896;9.192;2023-02-19T05:08:34;8.80;99.90
7934;DHT22;4012;48.896;9.192;2023-02-19T05:11:01;8.80;99.90
7934;DHT22;4012;48.896;9.192;2023-02-19T05:13:27;8.80;99.90
7934;DHT22;4012;48.896;9.192;2023-02-19T05:15:55;8.80;99.90
7934;DHT22;4012;48.896;9.192;2023-02-19T05:18:20;8.90;99.90
7934;DHT22;4012;48.896;9.192;2023-02-19T05:20:46;8.80;99.90
7934;DHT22;4012;48.896;9.192;2023-02-19T05:23:12;8.80;99.90
7934;DHT22;4012;48.896;9.192;2023-02-19T05:25:37;8.90;99.90
7934;DHT22;4012;48.896;9.192;2023-02-19T05:28:03;8.80;99.90
7934;DHT22;4012;48.896;9.192;2023-02-19T05:33:09;8.80;99.90
7934;DHT22;4012;48.896;9.192;2023-02-19T05:35:43;8.80;99.90
7934;DHT22;4012;48.896;9.192;2023-02-19T05:38:09;8.80;99.90
7934;DHT22;4012;48.896;9.192;2023-02-19T05:40:35;8.80;99.90
7934;DHT22;4012;48.896;9.192;2023-02-19T05:43:01;8.80;99.90
7934;DHT22;4012;48.896;9.192;2023-02-19T05:45:27;8.80;99.90
7934;DHT22;4012;48.896;9.192;2023-02-19T05:47:52;8.80;99.90
7934;DHT22;4012;48.896;9.192;2023-02-19T05:50:18;8.80;99.90
7934;DHT22;4012;48.896;9.192;2023-02-19T05:52:43;8.80;99.90
7934;DHT22;4012;48.896;9.192;2023-02-19T05:55:10;8.80;99.90
7934;DHT22;4012;48.896;9.192;2023-02-19T05:57:40;8.80;99.90
7934;DHT22;4012;48.896;9.192;2023-02-19T06:00:07;8.80;99.90
7934;DHT22;4012;48.896;9.192;2023-02-19T06:02:32;8.80;99.90
7934;DHT22;4012;48.896;9.192;2023-02-19T06:04:58;8.80;99.90
7934;DHT22;4012;48.896;9.192;2023-02-19T06:07:23;8.80;99.90
7934;DHT22;4012;48.896;9.192;2023-02-19T06:09:49;8.80;99.90
7934;DHT22;4012;48.896;9.192;2023-02-19T06:12:15;8.90;99.90
7934;DHT22;4012;48.896;9.192;2023-02-19T06:14:41;8.90;99.90
7934;DHT22;4012;48.896;9.192;2023-02-19T06:17:06;8.90;99.90
7934;DHT22;4012;48.896;9.192;2023-02-19T06:19:32;8.90;99.90
7934;DHT22;4012;48.896;9.192;2023-02-19T06:21:57;8.90;99.90
7934;DHT22;4012;48.896;9.192;2023-02-19T06:24:23;8.90;99.90
7934;DHT22;4012;48.896;9.192;2023-02-19T06:26:48;8.80;99.90
7934;DHT22;4012;48.896;9.192;2023-02-19T06:29:15;8.80;99.90
7934;DHT22;4012;48.896;9.192;2023-02-19T06:31:41;8.80;99.90
7934;DHT22;4012;48.896;9.192;2023-02-19T06:34:07;8.90;99.90
7934;DHT22;4012;48.896;9.192;2023-02-19T06:36:32;8.90;99.90
7934;DHT22;4012;48.896;9.192;2023-02-19T06:38:59;9.00;99.90
7934;DHT22;4012;48.896;9.192;2023-02-19T06:41:24;9.00;99.90
7934;DHT22;4012;48.896;9.192;2023-02-19T06:43:50;8.90;99.90
7934;DHT22;4012;48.896;9.192;2023-02-19T06:46:16;9.00;99.90
7934;DHT22;4012;48.896;9.192;2023-02-19T06:48:43;9.00;99.90
7934;DHT22;4012;48.896;9.192;2023-02-19T06:51:18;9.00;99.90
7934;DHT22;4012;48.896;9.192;2023-02-19T06:53:48;9.00;99.90
7934;DHT22;4012;48.896;9.192;2023-02-19T06:56:31;9.00;99.90
7934;DHT22;4012;48.896;9.192;2023-02-19T06:58:59;9.00;99.90
7934;DHT22;4012;48.896;9.192;2023-02-19T07:01:26;9.10;99.90
7934;DHT22;4012;48.896;9.192;2023-02-19T07:03:52;9.10;99.90
7934;DHT22;4012;48.896;9.192;2023-02-19T07:06:19;9.10;99.90
7934;DHT22;4012;48.896;9.192;2023-02-19T07:08:46;9.10;99.90
7934;DHT22;4012;48.896;9.192;2023-02-19T07:11:12;9.10;99.90
7934;DHT22;4012;48.896;9.192;2023-02-19T07:13:38;9.10;99.90
7934;DHT22;4012;48.896;9.192;2023-02-19T07:16:05;9.10;99.90
7934;DHT22;4012;48.896;9.192;2023-02-19T07:18:35;9.10;99.90
7934;DHT22;4012;48.896;9.192;2023-02-19T07:21:07;9.10;99.90
7934;DHT22;4012;48.896;9.192;2023-02-19T07:23:33;9.00;99.90
7934;DHT22;4012;48.896;9.192;2023-02-19T07:25:59;9.10;99.90
7934;DHT22;4012;48.896;9.192;2023-02-19T07:28:25;9.10;99.90
7934;DHT22;4012;48.896;9.192;2023-02-19T07:30:51;9.00;99.90
7934;DHT22;4012;48.896;9.192;2023-02-19T07:33:17;9.00;99.90
7934;DHT22;4012;48.896;9.192;2023-02-19T07:35:49;9.10;99.90
7934;DHT22;4012;48.896;9.192;2023-02-19T07:38:19;9.10;99.90
7934;DHT22;4012;48.896;9.192;2023-02-19T07:40:59;9.10;99.90
7934;DHT22;4012;48.896;9.192;2023-02-19T07:43:27;9.10;99.90
7934;DHT22;4012;48.896;9.192;2023-02-19T07:45:53;9.20;99.90
7934;DHT22;4012;48.896;9.192;2023-02-19T07:48:19;9.10;99.90
7934;DHT22;4012;48.896;9.192;2023-02-19T07:50:55;9.20;99.90
7934;DHT22;4012;48.896;9.192;2023-02-19T07:53:22;9.10;99.90
7934;DHT22;4012;48.896;9.192;2023-02-19T07:55:48;9.10;99.90
7934;DHT22;4012;48.896;9.192;2023-02-19T07:58:13;9.10;99.90
7934;DHT22;4012;48.896;9.192;2023-02-19T08:00:39;9.20;99.90
7934;DHT22;4012;48.896;9.192;2023-02-19T08:03:05;9.20;99.90
7934;DHT22;4012;48.896;9.192;2023-02-19T08:05:39;9.30;99.90
7934;DHT22;4012;48.896;9.192;2023-02-19T08:08:10;9.20;99.90
7934;DHT22;4012;48.896;9.192;2023-02-19T08:10:36;9.30;99.90
7934;DHT22;4012;48.896;9.192;2023-02-19T08:13:20;9.30;99.90
7934;DHT22;4012;48.896;9.192;2023-02-19T08:16:04;9.40;99.90
7934;DHT22;4012;48.896;9.192;2023-02-19T08:18:33;9.40;99.90
7934;DHT22;4012;48.896;9.192;2023-02-19T08:20:59;9.50;99.90
7934;DHT22;4012;48.896;9.192;2023-02-19T08:23:26;9.60;99.90
7934;DHT22;4012;48.896;9.192;2023-02-19T08:25:53;9.60;99.90
7934;DHT22;4012;48.896;9.192;2023-02-19T08:28:20;9.50;99.90
7934;DHT22;4012;48.896;9.192;2023-02-19T08:30:46;9.50;99.90
7934;DHT22;4012;48.896;9.192;2023-02-19T08:33:14;9.40;99.90
7934;DHT22;4012;48.896;9.192;2023-02-19T08:35:41;9.50;99.90
7934;DHT22;4012;48.896;9.192;2023-02-19T08:38:08;9.50;99.90
7934;DHT22;4012;48.896;9.192;2023-02-19T08:40:35;9.50;99.90
7934;DHT22;4012;48.896;9.192;2023-02-19T08:43:09;9.50;99.90
7934;DHT22;4012;48.896;9.192;2023-02-19T08:45:37;9.50;99.90
7934;DHT22;4012;48.896;9.192;2023-02-19T08:48:03;9.70;99.90
7934;DHT22;4012;48.896;9.192;2023-02-19T08:50:28;9.50;99.90
7934;DHT22;4012;48.896;9.192;2023-02-19T08:52:54;9.60;99.90
7934;DHT22;4012;48.896;9.192;2023-02-19T08:55:19;9.70;99.90
7934;DHT22;4012;48.896;9.192;2023-02-19T08:57:45;9.70;99.90
7934;DHT22;4012;48.896;9.192;2023-02-19T09:00:11;9.70;99.90
7934;DHT22;4012;48.896;9.192;2023-02-19T09:02:37;9.70;99.90
7934;DHT22;4012;48.896;9.192;2023-02-19T09:05:03;9.70;99.90
7934;DHT22;4012;48.896;9.192;2023-02-19T09:07:30;9.70;99.90
7934;DHT22;4012;48.896;9.192;2023-02-19T09:09:56;9.80;99.90
7934;DHT22;4012;48.896;9.192;2023-02-19T09:12:23;9.90;99.90
7934;DHT22;4012;48.896;9.192;2023-02-19T09:14:49;10.00;99.90
7934;DHT22;4012;48.896;9.192;2023-02-19T09:17:15;10.00;99.90
7934;DHT22;4012;48.896;9.192;2023-02-19T09:19:40;10.00;99.90
7934;DHT22;4012;48.896;9.192;2023-02-19T09:22:06;10.10;99.90
7934;DHT22;4012;48.896;9.192;2023-02-19T09:24:32;10.30;99.90
7934;DHT22;4012;48.896;9.192;2023-02-19T09:26:57;10.40;99.90
7934;DHT22;4012;48.896;9.192;2023-02-19T09:29:24;10.50;99.90
7934;DHT22;4012;48.896;9.192;2023-02-19T09:31:50;10.50;99.90
7934;DHT22;4012;48.896;9.192;2023-02-19T09:34:19;10.30;99.90
7934;DHT22;4012;48.896;9.192;2023-02-19T09:36:47;10.20;99.90
7934;DHT22;4012;48.896;9.192;2023-02-19T09:39:13;10.30;99.90
7934;DHT22;4012;48.896;9.192;2023-02-19T09:41:48;10.10;99.90
7934;DHT22;4012;48.896;9.192;2023-02-19T09:44:24;10.10;99.90
7934;DHT22;4012;48.896;9.192;2023-02-19T09:46:52;10.20;99.90
7934;DHT22;4012;48.896;9.192;2023-02-19T09:51:58;10.70;99.90
7934;DHT22;4012;48.896;9.192;2023-02-19T09:54:30;12.00;99.90
7934;DHT22;4012;48.896;9.192;2023-02-19T09:56:59;12.40;99.90
7934;DHT22;4012;48.896;9.192;2023-02-19T10:02:01;12.90;99.90
7934;DHT22;4012;48.896;9.192;2023-02-19T10:04:28;12.50;99.90
7934;DHT22;4012;48.896;9.192;2023-02-19T10:06:53;12.50;99.90
7934;DHT22;4012;48.896;9.192;2023-02-19T10:09:26;12.30;99.90
7934;DHT22;4012;48.896;9.192;2023-02-19T10:11:55;11.90;99.90
7934;DHT22;4012;48.896;9.192;2023-02-19T10:16:51;11.90;99.90
7934;DHT22;4012;48.896;9.192;2023-02-19T10:19:17;12.00;99.90
7934;DHT22;4012;48.896;9.192;2023-02-19T10:21:44;12.00;99.90
7934;DHT22;4012;48.896;9.192;2023-02-19T10:24:24;11.90;99.90
7934;DHT22;4012;48.896;9.192;2023-02-19T10:26:50;11.90;99.90
7934;DHT22;4012;48.896;9.192;2023-02-19T10:29:16;11.60;99.90
7934;DHT22;4012;48.896;9.192;2023-02-19T10:31:41;11.30;99.90
7934;DHT22;4012;48.896;9.192;2023-02-19T10:34:18;11.50;99.90
7934;DHT22;4012;48.896;9.192;2023-02-19T10:36:47;11.30;99.90
7934;DHT22;4012;48.896;9.192;2023-02-19T10:41:49;11.30;99.90
7934;DHT22;4012;48.896;9.192;2023-02-19T10:44:24;11.40;99.90
7934;DHT22;4012;48.896;9.192;2023-02-19T10:46:53;11.30;99.90
7934;DHT22;4012;48.896;9.192;2023-02-19T10:49:35;11.20;99.90
7934;DHT22;4012;48.896;9.192;2023-02-19T10:54:42;11.30;99.90
7934;DHT22;4012;48.896;9.192;2023-02-19T10:59:54;11.50;99.90
7934;DHT22;4012;48.896;9.192;2023-02-19T11:02:22;11.40;99.90
7934;DHT22;4012;48.896;9.192;2023-02-19T11:07:52;11.10;99.90
7934;DHT22;4012;48.896;9.192;2023-02-19T11:10:32;11.30;99.90
7934;DHT22;4012;48.896;9.192;2023-02-19T11:13:03;11.10;99.90
7934;DHT22;4012;48.896;9.192;2023-02-19T11:15:34;11.20;99.90
7934;DHT22;4012;48.896;9.192;2023-02-19T11:20:27;10.90;99.90
7934;DHT22;4012;48.896;9.192;2023-02-19T11:22:57;11.00;99.90
7934;DHT22;4012;48.896;9.192;2023-02-19T11:25:24;11.00;99.90
7934;DHT22;4012;48.896;9.192;2023-02-19T11:28:16;10.80;99.90
7934;DHT22;4012;48.896;9.192;2023-02-19T11:30:46;11.20;99.90
7934;DHT22;4012;48.896;9.192;2023-02-19T11:35:41;11.50;99.90
7934;DHT22;4012;48.896;9.192;2023-02-19T11:38:09;11.70;99.90
7934;DHT22;4012;48.896;9.192;2023-02-19T11:41:00;11.60;99.90
7934;DHT22;4012;48.896;9.192;2023-02-19T12:00:09;11.40;99.90
7934;DHT22;4012;48.896;9.192;2023-02-19T12:02:53;11.30;99.90
7934;DHT22;4012;48.896;9.192;2023-02-19T12:13:56;11.40;99.90
7934;DHT22;4012;48.896;9.192;2023-02-19T12:19:29;11.70;99.90
7934;DHT22;4012;48.896;9.192;2023-02-19T12:30:31;11.40;99.90
7934;DHT22;4012;48.896;9.192;2023-02-19T12:35:55;11.40;99.90
7934;DHT22;4012;48.896;9.192;2023-02-19T12:41:22;11.50;99.90
7934;DHT22;4012;48.896;9.192;2023-02-19T12:44:00;11.70;99.90
7934;DHT22;4012;48.896;9.192;2023-02-19T12:46:36;12.10;99.90
7934;DHT22;4012;48.896;9.192;2023-02-19T12:49:32;12.20;99.90
7934;DHT22;4012;48.896;9.192;2023-02-19T12:52:02;12.20;99.90
7934;DHT22;4012;48.896;9.192;2023-02-19T12:54:36;12.00;99.90
7934;DHT22;4012;48.896;9.192;2023-02-19T12:59:52;12.10;99.90
7934;DHT22;4012;48.896;9.192;2023-02-19T13:02:28;11.80;99.90
7934;DHT22;4012;48.896;9.192;2023-02-19T13:05:02;11.70;99.90
7934;DHT22;4012;48.896;9.192;2023-02-19T13:10:05;11.20;99.90
7934;DHT22;4012;48.896;9.192;2023-02-19T13:12:36;11.10;99.90
7934;DHT22;4012;48.896;9.192;2023-02-19T13:15:13;11.10;99.90
7934;DHT22;4012;48.896;9.192;2023-02-19T13:17:50;11.00;99.90
7934;DHT22;4012;48.896;9.192;2023-02-19T13:20:25;10.70;99.90
7934;DHT22;4012;48.896;9.192;2023-02-19T13:29:12;10.70;99.90
7934;DHT22;4012;48.896;9.192;2023-02-19T13:37:12;11.00;99.90
7934;DHT22;4012;48.896;9.192;2023-02-19T13:39:50;10.80;99.90
7934;DHT22;4012;48.896;9.192;2023-02-19T13:42:32;10.70;99.90
7934;DHT22;4012;48.896;9.192;2023-02-19T13:44:59;10.60;99.90
7934;DHT22;4012;48.896;9.192;2023-02-19T13:50:30;10.40;99.90
7934;DHT22;4012;48.896;9.192;2023-02-19T13:52:58;10.40;99.90
7934;DHT22;4012;48.896;9.192;2023-02-19T14:01:18;10.60;99.90
7934;DHT22;4012;48.896;9.192;2023-02-19T14:03:53;10.80;99.90
7934;DHT22;4012;48.896;9.192;2023-02-19T14:06:19;11.10;99.90
7934;DHT22;4012;48.896;9.192;2023-02-19T14:27:54;11.00;99.90
7934;DHT22;4012;48.896;9.192;2023-02-19T14:30:22;11.10;99.90
7934;DHT22;4012;48.896;9.192;2023-02-19T14:32:49;11.00;99.90
7934;DHT22;4012;48.896;9.192;2023-02-19T14:35:19;11.10;99.90
7934;DHT22;4012;48.896;9.192;2023-02-19T14:37:46;11.10;99.90
7934;DHT22;4012;48.896;9.192;2023-02-19T14:40:19;11.20;99.90
7934;DHT22;4012;48.896;9.192;2023-02-19T14:42:46;11.40;99.90
7934;DHT22;4012;48.896;9.192;2023-02-19T14:45:14;11.30;99.90
7934;DHT22;4012;48.896;9.192;2023-02-19T14:47:42;11.10;99.90
7934;DHT22;4012;48.896;9.192;2023-02-19T14:50:15;11.00;99.90
7934;DHT22;4012;48.896;9.192;2023-02-19T14:52:46;11.20;99.90
7934;DHT22;4012;48.896;9.192;2023-02-19T14:55:28;11.00;99.90
7934;DHT22;4012;48.896;9.192;2023-02-19T14:57:56;11.10;99.90
7934;DHT22;4012;48.896;9.192;2023-02-19T15:02:50;11.30;99.90
7934;DHT22;4012;48.896;9.192;2023-02-19T15:05:31;11.30;99.90
7934;DHT22;4012;48.896;9.192;2023-02-19T15:07:58;11.00;99.90
7934;DHT22;4012;48.896;9.192;2023-02-19T15:10:27;10.90;99.90
7934;DHT22;4012;48.896;9.192;2023-02-19T15:12:57;10.90;99.90
7934;DHT22;4012;48.896;9.192;2023-02-19T15:15:26;10.80;99.90
7934;DHT22;4012;48.896;9.192;2023-02-19T15:17:54;10.90;99.90
7934;DHT22;4012;48.896;9.192;2023-02-19T15:20:23;10.90;99.90
7934;DHT22;4012;48.896;9.192;2023-02-19T15:22:50;10.90;99.90
7934;DHT22;4012;48.896;9.192;2023-02-19T15:25:18;10.90;99.90
7934;DHT22;4012;48.896;9.192;2023-02-19T15:27:44;10.80;99.90
7934;DHT22;4012;48.896;9.192;2023-02-19T15:30:25;10.70;99.90
7934;DHT22;4012;48.896;9.192;2023-02-19T15:32:57;10.90;99.90
7934;DHT22;4012;48.896;9.192;2023-02-19T15:35:25;10.70;99.90
7934;DHT22;4012;48.896;9.192;2023-02-19T15:37:51;10.80;99.90
7934;DHT22;4012;48.896;9.192;2023-02-19T15:40:19;10.80;99.90
7934;DHT22;4012;48.896;9.192;2023-02-19T15:42:48;10.70;99.90
7934;DHT22;4012;48.896;9.192;2023-02-19T15:47:50;10.70;99.90
7934;DHT22;4012;48.896;9.192;2023-02-19T15:50:31;10.70;99.90
7934;DHT22;4012;48.896;9.192;2023-02-19T15:58:31;10.50;99.90
7934;DHT22;4012;48.896;9.192;2023-02-19T16:01:03;10.50;99.90
7934;DHT22;4012;48.896;9.192;2023-02-19T16:03:32;10.50;99.90
7934;DHT22;4012;48.896;9.192;2023-02-19T16:06:15;10.60;99.90
7934;DHT22;4012;48.896;9.192;2023-02-19T16:13:49;10.50;99.90
7934;DHT22;4012;48.896;9.192;2023-02-19T16:18:48;10.40;99.90
7934;DHT22;4012;48.896;9.192;2023-02-19T16:21:16;10.40;99.90
7934;DHT22;4012;48.896;9.192;2023-02-19T16:23:46;10.40;99.90
7934;DHT22;4012;48.896;9.192;2023-02-19T16:26:13;10.40;99.90
7934;DHT22;4012;48.896;9.192;2023-02-19T16:28:40;10.40;99.90
7934;DHT22;4012;48.896;9.192;2023-02-19T16:31:08;10.30;99.90
7934;DHT22;4012;48.896;9.192;2023-02-19T16:33:43;10.00;99.90
7934;DHT22;4012;48.896;9.192;2023-02-19T16:36:34;10.10;99.90
7934;DHT22;4012;48.896;9.192;2023-02-19T16:43:58;10.00;99.90
7934;DHT22;4012;48.896;9.192;2023-02-19T16:46:30;10.00;99.90
7934;DHT22;4012;48.896;9.192;2023-02-19T16:48:56;10.00;99.90
7934;DHT22;4012;48.896;9.192;2023-02-19T16:51:26;10.00;99.90
7934;DHT22;4012;48.896;9.192;2023-02-19T16:53:52;9.90;99.90
7934;DHT22;4012;48.896;9.192;2023-02-19T16:56:19;9.90;99.90
7934;DHT22;4012;48.896;9.192;2023-02-19T16:58:48;9.90;99.90
7934;DHT22;4012;48.896;9.192;2023-02-19T17:01:13;9.90;99.90
7934;DHT22;4012;48.896;9.192;2023-02-19T17:03:39;9.80;99.90
7934;DHT22;4012;48.896;9.192;2023-02-19T17:06:05;9.90;99.90
7934;DHT22;4012;48.896;9.192;2023-02-19T17:08:40;9.90;99.90
7934;DHT22;4012;48.896;9.192;2023-02-19T17:11:11;9.90;99.90
7934;DHT22;4012;48.896;9.192;2023-02-19T17:13:37;9.90;99.90
7934;DHT22;4012;48.896;9.192;2023-02-19T17:16:04;9.90;99.90
7934;DHT22;4012;48.896;9.192;2023-02-19T17:18:29;9.90;99.90
7934;DHT22;4012;48.896;9.192;2023-02-19T17:21:00;9.90;99.90
7934;DHT22;4012;48.896;9.192;2023-02-19T17:23:26;9.80;99.90
7934;DHT22;4012;48.896;9.192;2023-02-19T17:25:52;9.70;99.90
7934;DHT22;4012;48.896;9.192;2023-02-19T17:28:17;9.80;99.90
7934;DHT22;4012;48.896;9.192;2023-02-19T17:30:43;9.80;99.90
7934;DHT22;4012;48.896;9.192;2023-02-19T17:33:09;9.80;99.90
7934;DHT22;4012;48.896;9.192;2023-02-19T17:35:34;9.80;99.90
7934;DHT22;4012;48.896;9.192;2023-02-19T17:38:00;9.80;99.90
7934;DHT22;4012;48.896;9.192;2023-02-19T17:40:30;9.90;99.90
7934;DHT22;4012;48.896;9.192;2023-02-19T17:42:56;9.90;99.90
7934;DHT22;4012;48.896;9.192;2023-02-19T17:45:22;9.80;99.90
7934;DHT22;4012;48.896;9.192;2023-02-19T17:47:48;9.70;99.90
7934;DHT22;4012;48.896;9.192;2023-02-19T17:50:21;9.80;99.90
7934;DHT22;4012;48.896;9.192;2023-02-19T17:52:46;9.80;99.90
7934;DHT22;4012;48.896;9.192;2023-02-19T17:55:13;9.70;99.90
7934;DHT22;4012;48.896;9.192;2023-02-19T17:57:43;9.70;99.90
7934;DHT22;4012;48.896;9.192;2023-02-19T18:00:11;9.70;99.90
7934;DHT22;4012;48.896;9.192;2023-02-19T18:02:37;9.70;99.90
7934;DHT22;4012;48.896;9.192;2023-02-19T18:05:03;9.70;99.90
7934;DHT22;4012;48.896;9.192;2023-02-19T18:07:28;9.70;99.90
7934;DHT22;4012;48.896;9.192;2023-02-19T18:09:54;9.70;99.90
7934;DHT22;4012;48.896;9.192;2023-02-19T18:12:20;9.70;99.90
7934;DHT22;4012;48.896;9.192;2023-02-19T18:14:45;9.70;99.90
7934;DHT22;4012;48.896;9.192;2023-02-19T18:17:11;9.70;99.90
7934;DHT22;4012;48.896;9.192;2023-02-19T18:19:36;9.70;99.90
7934;DHT22;4012;48.896;9.192;2023-02-19T18:22:02;9.70;99.90
7934;DHT22;4012;48.896;9.192;2023-02-19T18:24:28;9.70;99.90
7934;DHT22;4012;48.896;9.192;2023-02-19T18:26:53;9.70;99.90
7934;DHT22;4012;48.896;9.192;2023-02-19T18:29:19;9.70;99.90
7934;DHT22;4012;48.896;9.192;2023-02-19T18:31:46;9.70;99.90
7934;DHT22;4012;48.896;9.192;2023-02-19T18:34:16;9.70;99.90
7934;DHT22;4012;48.896;9.192;2023-02-19T18:36:46;9.70;99.90
7934;DHT22;4012;48.896;9.192;2023-02-19T18:39:13;9.70;99.90
7934;DHT22;4012;48.896;9.192;2023-02-19T18:41:38;9.60;99.90
7934;DHT22;4012;48.896;9.192;2023-02-19T18:44:04;9.60;99.90
7934;DHT22;4012;48.896;9.192;2023-02-19T18:46:30;9.60;99.90
7934;DHT22;4012;48.896;9.192;2023-02-19T18:48:55;9.60;99.90
7934;DHT22;4012;48.896;9.192;2023-02-19T18:51:22;9.60;99.90
7934;DHT22;4012;48.896;9.192;2023-02-19T18:53:50;9.60;99.90
7934;DHT22;4012;48.896;9.192;2023-02-19T18:56:16;9.60;99.90
7934;DHT22;4012;48.896;9.192;2023-02-19T18:58:42;9.60;99.90
7934;DHT22;4012;48.896;9.192;2023-02-19T19:01:07;9.60;99.90
7934;DHT22;4012;48.896;9.192;2023-02-19T19:03:33;9.60;99.90
7934;DHT22;4012;48.896;9.192;2023-02-19T19:05:59;9.60;99.90
7934;DHT22;4012;48.896;9.192;2023-02-19T19:08:24;9.60;99.90
7934;DHT22;4012;48.896;9.192;2023-02-19T19:10:52;9.60;99.90
7934;DHT22;4012;48.896;9.192;2023-02-19T19:13:18;9.70;99.90
7934;DHT22;4012;48.896;9.192;2023-02-19T19:15:49;9.60;99.90
7934;DHT22;4012;48.896;9.192;2023-02-19T19:18:14;9.70;99.90